LFLP 301030Z AUTO VRB04KT CAVOK 20/10 Q1018

ElémentsDécodage
LFLP Station météo située sur l'aérodrome de ANNECY Meythet
301030Z émis le 30 du mois à 10h30 UTC
AUTO Bulletin édité par un automate
VRB04KT vent de direction variable, 04 noeuds
CAVOK Ceiling And Visibility OK
- Visibilité de 10 Km ou plus
- Pas de nuage au-dessous de 1500m ou au-dessous de l'altitude minimale du secteur la plus élevée (si>1500m) et absence de CB
- pas de temps présent significatif
20/10 température 20°C, point de rosée 10°C
 soit une humidité relative de 53%
Q1018 la pression au niveau de la mer (QNH) est de 1018 hPa